Time;durP1;ratioP1;P1;durP2;ratioP2;P2;SDS_P1;SDS_P2;PMS_P1;PMS_P2;Temp;Humidity;BMP_temperature;BMP_pressure;BME280_temperature;BME280_humidity;BME280_pressure;Samples;Min_cycle;Max_cycle;Signal;HPM_P1;HPM_P2
2023/02/20 00:01:36;;;;;;;3.72;2.25;;;;;;;;;;10461047;28;20119;-85
2023/02/20 00:06:41;;;;;;;3.50;2.00;;;;;;;;;;10458418;28;20071;-84
2023/02/20 00:11:45;;;;;;;;;;;;;;;;;;10460368;28;20094;-83
2023/02/20 00:16:49;;;;;;;2.58;1.70;;;;;;;;;;10461059;28;19974;-84
2023/02/20 00:21:54;;;;;;;3.35;1.50;;;;;;;;;;10458263;28;20048;-85
2023/02/20 00:26:57;;;;;;;2.75;1.65;;;;;;;;;;10462560;28;20059;-83
2023/02/20 00:32:01;;;;;;;2.85;1.92;;;;;;;;;;10464988;28;20216;-87
2023/02/20 00:37:09;;;;;;;4.40;2.08;;;;;;;;;;10464180;28;20457;-86
2023/02/20 00:42:13;;;;;;;2.72;2.15;;;;;;;;;;10476841;28;20064;-84
2023/02/20 00:47:16;;;;;;;4.40;2.20;;;;;;;;;;10459910;28;20397;-83
2023/02/20 00:52:21;;;;;;;3.35;2.33;;;;;;;;;;10434645;28;20515;-80
2023/02/20 00:57:25;;;;;;;3.35;2.10;;;;;;;;;;10449922;28;20044;-80
2023/02/20 01:02:30;;;;;;;1.92;1.58;;;;;;;;;;10464308;28;20064;-80
2023/02/20 01:07:34;;;;;;;2.45;1.50;;;;;;;;;;10474320;28;20044;-80
2023/02/20 01:12:38;;;;;;;2.35;1.73;;;;;;;;;;10449467;28;20053;-81
2023/02/20 01:17:41;;;;;;;1.40;1.27;;;;;;;;;;10466181;28;20131;-80
2023/02/20 01:22:46;;;;;;;1.40;1.20;;;;;;;;;;10470151;28;20056;-80
2023/02/20 01:27:50;;;;;;;1.15;0.95;;;;;;;;;;10470628;28;20045;-81
2023/02/20 01:32:54;;;;;;;2.38;1.27;;;;;;;;;;10472876;28;20135;-80
2023/02/20 01:37:59;;;;;;;3.13;1.23;;;;;;;;;;10467292;28;20040;-81
2023/02/20 01:43:04;;;;;;;3.22;1.48;;;;;;;;;;10464265;28;20083;-85
2023/02/20 01:48:20;;;;;;;1.95;1.42;;;;;;;;;;10467342;28;20037;-82
2023/02/20 01:53:29;;;;;;;3.30;1.80;;;;;;;;;;10462784;28;20039;-84
2023/02/20 01:58:39;;;;;;;1.50;1.35;;;;;;;;;;10473277;28;20044;-83
2023/02/20 02:03:49;;;;;;;1.80;1.45;;;;;;;;;;10467419;28;20033;-83
2023/02/20 02:08:57;;;;;;;2.63;1.77;;;;;;;;;;10457159;28;20080;-82
2023/02/20 02:14:00;;;;;;;1.90;1.77;;;;;;;;;;10474040;28;20750;-81
2023/02/20 02:19:16;;;;;;;2.67;2.03;;;;;;;;;;10467103;28;20103;-80
2023/02/20 02:25:06;;;;;;;2.05;1.50;;;;;;;;;;10491656;28;20072;-80
2023/02/20 02:30:46;;;;;;;3.65;1.80;;;;;;;;;;10457125;28;20049;-80
2023/02/20 02:36:32;;;;;;;3.45;1.95;;;;;;;;;;10458046;28;20044;-80
2023/02/20 02:41:45;;;;;;;2.33;1.88;;;;;;;;;;10411333;28;20041;-80
2023/02/20 02:46:55;;;;;;;2.67;2.30;;;;;;;;;;10461836;28;20332;-80
2023/02/20 02:52:02;;;;;;;3.65;2.55;;;;;;;;;;10453491;28;20060;-81
2023/02/20 02:57:24;;;;;;;3.15;2.22;;;;;;;;;;10460602;28;20515;-80
2023/02/20 03:02:31;;;;;;;3.15;2.22;;;;;;;;;;10469668;28;20040;-81
2023/02/20 03:07:39;;;;;;;4.30;2.75;;;;;;;;;;10456312;28;20045;-80
2023/02/20 03:12:47;;;;;;;3.60;2.30;;;;;;;;;;10461237;28;20061;-80
2023/02/20 03:17:56;;;;;;;3.10;2.22;;;;;;;;;;10476046;28;20726;-80
2023/02/20 03:23:03;;;;;;;3.13;2.40;;;;;;;;;;10478101;28;20060;-81
2023/02/20 03:28:10;;;;;;;3.47;2.40;;;;;;;;;;10459772;28;20354;-82
2023/02/20 03:44:06;;;;;;;3.88;2.72;;;;;;;;;;10479405;28;20415;-83
2023/02/20 03:49:14;;;;;;;4.68;3.15;;;;;;;;;;10454349;28;20040;-82
2023/02/20 03:54:21;;;;;;;4.70;2.97;;;;;;;;;;10452904;28;20037;-83
2023/02/20 03:59:30;;;;;;;3.50;2.88;;;;;;;;;;10427335;28;20117;-81
2023/02/20 04:04:40;;;;;;;4.47;2.97;;;;;;;;;;10443476;28;20040;-80
2023/02/20 04:09:46;;;;;;;3.40;2.22;;;;;;;;;;10453576;28;20044;-81
2023/02/20 04:14:52;;;;;;;3.83;2.38;;;;;;;;;;10433179;28;20675;-81
2023/02/20 04:19:55;;;;;;;3.00;2.10;;;;;;;;;;10450795;28;20141;-81
2023/02/20 04:25:03;;;;;;;4.28;2.22;;;;;;;;;;10451285;28;20041;-80
2023/02/20 04:30:09;;;;;;;3.28;2.03;;;;;;;;;;10452726;28;20111;-81
2023/02/20 04:35:18;;;;;;;1.67;1.47;;;;;;;;;;10451444;28;20036;-81
2023/02/20 04:40:25;;;;;;;3.05;2.28;;;;;;;;;;10440448;28;21013;-80
2023/02/20 04:45:29;;;;;;;3.53;1.98;;;;;;;;;;10450745;28;20040;-80
2023/02/20 04:50:34;;;;;;;3.08;1.63;;;;;;;;;;10447512;28;20112;-80
2023/02/20 04:55:41;;;;;;;3.15;2.10;;;;;;;;;;10449140;28;20041;-80
2023/02/20 05:00:49;;;;;;;4.38;1.85;;;;;;;;;;10483074;28;20044;-79
2023/02/20 05:05:52;;;;;;;2.85;1.92;;;;;;;;;;10471770;28;20052;-82
2023/02/20 05:10:57;;;;;;;4.53;2.00;;;;;;;;;;10460134;28;20409;-83
2023/02/20 05:16:01;;;;;;;4.03;2.13;;;;;;;;;;10467766;28;20082;-85
2023/02/20 05:26:29;;;;;;;3.38;1.75;;;;;;;;;;10441678;28;20120;-85
2023/02/20 05:31:33;;;;;;;3.38;1.77;;;;;;;;;;10486535;28;20048;-86
2023/02/20 05:36:37;;;;;;;2.55;1.70;;;;;;;;;;10472411;28;20131;-85
2023/02/20 05:41:42;;;;;;;2.75;1.27;;;;;;;;;;10476068;28;20045;-85
2023/02/20 05:46:46;;;;;;;5.93;1.85;;;;;;;;;;10503921;28;20542;-87
2023/02/20 05:51:50;;;;;;;3.10;1.65;;;;;;;;;;10477343;28;20144;-86
2023/02/20 05:56:55;;;;;;;2.15;1.40;;;;;;;;;;10448011;28;20094;-85
2023/02/20 06:02:00;;;;;;;3.92;1.38;;;;;;;;;;10464863;28;20067;-86
2023/02/20 06:07:06;;;;;;;2.25;1.38;;;;;;;;;;10476663;28;20045;-84
2023/02/20 06:12:13;;;;;;;1.60;1.20;;;;;;;;;;10468228;28;20045;-84
2023/02/20 06:17:17;;;;;;;1.55;0.82;;;;;;;;;;10472165;28;20108;-86
2023/02/20 06:22:20;;;;;;;2.60;0.95;;;;;;;;;;10470896;28;20770;-84
2023/02/20 06:27:25;;;;;;;3.33;1.67;;;;;;;;;;10493924;28;20051;-84
2023/02/20 06:32:29;;;;;;;3.00;1.27;;;;;;;;;;10476725;28;20139;-83
2023/02/20 06:37:32;;;;;;;2.35;1.33;;;;;;;;;;10453944;28;20055;-81
2023/02/20 06:42:52;;;;;;;2.53;1.60;;;;;;;;;;10461576;28;20141;-80
2023/02/20 06:47:56;;;;;;;3.15;1.17;;;;;;;;;;10442793;28;20361;-86
2023/02/20 06:53:00;;;;;;;2.08;1.08;;;;;;;;;;10461582;28;20045;-83
2023/02/20 06:58:05;;;;;;;1.35;1.20;;;;;;;;;;10460063;28;20056;-83
2023/02/20 07:03:09;;;;;;;1.30;1.05;;;;;;;;;;10447765;28;20671;-86
2023/02/20 07:08:16;;;;;;;1.92;1.70;;;;;;;;;;10467476;28;20078;-85
2023/02/20 07:13:23;;;;;;;;;;;;;;;;;;10460977;28;20036;-84
2023/02/20 07:18:26;;;;;;;2.95;1.60;;;;;;;;;;10485393;28;19924;-83
2023/02/20 07:23:30;;;;;;;1.60;1.50;;;;;;;;;;10467238;28;20041;-83
2023/02/20 07:28:36;;;;;;;2.83;1.17;;;;;;;;;;10463806;28;20041;-81
2023/02/20 07:33:41;;;;;;;3.33;2.15;;;;;;;;;;10482242;28;20079;-80
2023/02/20 07:38:57;;;;;;;6.17;2.53;;;;;;;;;;10461666;28;20040;-80
2023/02/20 07:44:02;;;;;;;3.80;2.35;;;;;;;;;;10445351;28;20392;-80
2023/02/20 07:49:06;;;;;;;2.45;1.52;;;;;;;;;;10436439;28;20415;-79
2023/02/20 07:54:09;;;;;;;2.38;1.42;;;;;;;;;;10443999;28;20524;-81
2023/02/20 07:59:14;;;;;;;2.42;1.55;;;;;;;;;;10457217;28;20119;-81
2023/02/20 08:04:17;;;;;;;3.60;1.73;;;;;;;;;;10461540;28;20044;-81
2023/02/20 08:09:21;;;;;;;3.20;2.00;;;;;;;;;;10454499;28;20427;-84
2023/02/20 08:14:27;;;;;;;4.75;2.67;;;;;;;;;;10467513;28;20046;-83
2023/02/20 08:19:31;;;;;;;3.38;1.85;;;;;;;;;;10464560;28;20037;-85
2023/02/20 08:24:36;;;;;;;2.95;1.75;;;;;;;;;;10448182;28;20045;-83
2023/02/20 08:29:41;;;;;;;2.65;1.90;;;;;;;;;;10471015;28;20067;-81
2023/02/20 08:34:45;;;;;;;4.88;2.50;;;;;;;;;;10463543;28;20520;-81
2023/02/20 08:39:48;;;;;;;2.78;1.92;;;;;;;;;;10464003;28;20072;-81
2023/02/20 08:44:53;;;;;;;5.25;2.67;;;;;;;;;;10458730;28;20049;-84
2023/02/20 08:49:57;;;;;;;5.57;2.83;;;;;;;;;;10459966;28;20083;-84
2023/02/20 08:55:01;;;;;;;8.82;4.07;;;;;;;;;;10460984;28;20060;-83
2023/02/20 09:00:08;;;;;;;4.95;2.53;;;;;;;;;;10455593;28;20436;-84
2023/02/20 09:05:12;;;;;;;3.13;2.00;;;;;;;;;;10434953;28;20447;-82
2023/02/20 09:10:17;;;;;;;6.30;2.40;;;;;;;;;;10453548;28;20048;-85
2023/02/20 09:28:34;;;;;;;4.13;2.88;;;;;;;;;;10468584;28;20044;-83
2023/02/20 09:33:38;;;;;;;7.72;3.78;;;;;;;;;;10474056;28;20084;-84
2023/02/20 09:38:41;;;;;;;5.28;2.58;;;;;;;;;;10476313;28;20040;-84
2023/02/20 09:43:52;;;;;;;4.85;3.08;;;;;;;;;;10479009;28;20044;-84
2023/02/20 09:49:04;;;;;;;5.97;3.13;;;;;;;;;;10454203;28;20063;-82
2023/02/20 09:54:12;;;;;;;6.60;3.05;;;;;;;;;;10463490;28;20048;-80
2023/02/20 09:59:20;;;;;;;9.23;3.80;;;;;;;;;;10466339;28;20041;-80
2023/02/20 10:04:27;;;;;;;5.10;2.80;;;;;;;;;;10470080;28;20066;-79
2023/02/20 10:09:30;;;;;;;4.93;3.20;;;;;;;;;;10468416;28;20267;-79
2023/02/20 10:15:01;;;;;;;8.05;3.60;;;;;;;;;;10455626;28;20548;-79
2023/02/20 10:20:12;;;;;;;4.95;2.28;;;;;;;;;;10450952;28;20045;-79
2023/02/20 10:25:20;;;;;;;5.60;3.67;;;;;;;;;;10476755;22;20045;-81
2023/02/20 10:30:30;;;;;;;8.70;3.90;;;;;;;;;;10458795;28;20048;-80
2023/02/20 10:35:40;;;;;;;6.68;3.60;;;;;;;;;;10438960;28;20049;-80
2023/02/20 10:40:49;;;;;;;8.10;3.45;;;;;;;;;;10445154;28;20056;-81
2023/02/20 10:45:58;;;;;;;6.85;3.15;;;;;;;;;;10433647;28;20049;-81
2023/02/20 10:51:07;;;;;;;8.20;3.70;;;;;;;;;;10428661;28;20050;-82
2023/02/20 10:56:15;;;;;;;5.15;2.58;;;;;;;;;;10422553;28;20048;-81
2023/02/20 11:01:22;;;;;;;8.80;4.57;;;;;;;;;;10425749;28;20569;-81
2023/02/20 11:06:32;;;;;;;10.00;4.63;;;;;;;;;;10432391;28;20053;-81
2023/02/20 11:11:40;;;;;;;7.70;3.83;;;;;;;;;;10426025;28;20080;-81
2023/02/20 11:16:49;;;;;;;8.63;3.78;;;;;;;;;;10425615;28;20113;-81
2023/02/20 11:21:53;;;;;;;9.48;3.53;;;;;;;;;;10439759;28;20041;-81
2023/02/20 11:27:00;;;;;;;9.93;3.80;;;;;;;;;;10424606;28;20802;-81
2023/02/20 11:32:29;;;;;;;5.82;3.67;;;;;;;;;;10413786;28;20104;-81
2023/02/20 11:37:33;;;;;;;10.45;4.10;;;;;;;;;;10416696;28;20044;-80
2023/02/20 11:42:42;;;;;;;9.43;4.40;;;;;;;;;;10420737;28;20056;-80
2023/02/20 11:48:02;;;;;;;8.95;4.10;;;;;;;;;;10412907;28;20551;-80
2023/02/20 11:53:07;;;;;;;11.38;4.63;;;;;;;;;;10407714;28;20543;-80
2023/02/20 11:58:20;;;;;;;8.43;4.30;;;;;;;;;;10413174;28;20047;-81
2023/02/20 12:03:28;;;;;;;7.60;4.57;;;;;;;;;;10400253;28;20040;-80
2023/02/20 12:08:43;;;;;;;6.70;3.65;;;;;;;;;;10405244;28;20041;-81
2023/02/20 12:13:49;;;;;;;8.77;4.53;;;;;;;;;;10420645;28;20096;-81
2023/02/20 12:19:00;;;;;;;8.77;4.70;;;;;;;;;;10407777;28;20037;-82
2023/02/20 12:24:24;;;;;;;7.82;3.92;;;;;;;;;;10428020;28;20511;-81
2023/02/20 12:29:40;;;;;;;6.78;4.50;;;;;;;;;;10417695;28;20049;-81
2023/02/20 12:35:10;;;;;;;8.45;4.90;;;;;;;;;;10411568;28;20428;-81
2023/02/20 12:40:27;;;;;;;8.40;3.92;;;;;;;;;;10421343;28;20048;-81
2023/02/20 12:45:37;;;;;;;6.60;3.17;;;;;;;;;;10419429;28;20041;-81
2023/02/20 12:50:53;;;;;;;8.60;3.70;;;;;;;;;;10409692;28;20565;-81
2023/02/20 12:56:08;;;;;;;5.13;3.17;;;;;;;;;;10423282;28;20049;-81
2023/02/20 13:01:13;;;;;;;6.90;3.13;;;;;;;;;;10423937;28;20037;-81
2023/02/20 13:06:26;;;;;;;5.45;3.00;;;;;;;;;;10426673;28;20037;-81
2023/02/20 13:11:35;;;;;;;5.38;2.50;;;;;;;;;;10442485;28;20040;-80
2023/02/20 13:16:44;;;;;;;8.05;3.15;;;;;;;;;;10392282;28;20072;-81
2023/02/20 13:21:49;;;;;;;6.10;2.70;;;;;;;;;;10428344;28;20392;-81
2023/02/20 13:26:54;;;;;;;10.43;3.70;;;;;;;;;;10398542;28;20052;-82
2023/02/20 13:32:00;;;;;;;6.47;3.40;;;;;;;;;;10425754;28;20545;-81
2023/02/20 13:37:05;;;;;;;4.73;2.43;;;;;;;;;;10407790;28;20460;-81
2023/02/20 13:42:38;;;;;;;7.90;3.13;;;;;;;;;;10415268;28;20041;-81
2023/02/20 13:47:42;;;;;;;8.05;3.03;;;;;;;;;;10417831;28;20041;-81
2023/02/20 13:52:48;;;;;;;5.97;2.78;;;;;;;;;;10431902;28;20060;-81
2023/02/20 13:57:53;;;;;;;8.93;3.25;;;;;;;;;;10416231;28;20049;-81
2023/02/20 14:02:57;;;;;;;7.93;2.50;;;;;;;;;;10435202;28;20071;-82
2023/02/20 14:08:01;;;;;;;5.22;2.92;;;;;;;;;;10425995;28;20068;-82
2023/02/20 14:13:12;;;;;;;7.60;2.80;;;;;;;;;;10410949;28;20037;-81
2023/02/20 14:18:18;;;;;;;6.85;2.53;;;;;;;;;;10423335;28;20037;-80
2023/02/20 14:23:27;;;;;;;6.15;2.50;;;;;;;;;;10421507;28;20049;-81
2023/02/20 14:28:32;;;;;;;5.97;2.97;;;;;;;;;;10415528;28;20056;-81
2023/02/20 14:33:36;;;;;;;7.90;2.97;;;;;;;;;;10418220;28;20059;-81
2023/02/20 14:39:09;;;;;;;8.90;3.00;;;;;;;;;;10437614;28;20408;-81
2023/02/20 14:44:17;;;;;;;4.63;2.50;;;;;;;;;;10426690;28;20037;-81
2023/02/20 14:49:25;;;;;;;4.32;2.28;;;;;;;;;;10410143;28;20041;-81
2023/02/20 14:54:30;;;;;;;10.05;3.08;;;;;;;;;;10410747;28;20572;-82
2023/02/20 14:59:34;;;;;;;5.40;2.92;;;;;;;;;;10415119;28;20045;-81
2023/02/20 15:04:46;;;;;;;7.38;3.30;;;;;;;;;;10406208;28;20049;-81
2023/02/20 15:09:53;;;;;;;6.68;2.97;;;;;;;;;;10425660;28;20045;-81
2023/02/20 15:14:59;;;;;;;7.57;2.80;;;;;;;;;;10417825;28;20401;-81
2023/02/20 15:20:17;;;;;;;6.90;3.15;;;;;;;;;;10407840;28;20427;-82
2023/02/20 15:25:32;;;;;;;7.50;2.70;;;;;;;;;;10430328;28;20049;-81
2023/02/20 15:30:56;;;;;;;5.28;2.67;;;;;;;;;;10405199;28;20052;-80
2023/02/20 15:36:01;;;;;;;6.60;3.25;;;;;;;;;;10417990;28;20044;-81
2023/02/20 15:41:06;;;;;;;5.88;3.05;;;;;;;;;;10411444;28;20045;-81
2023/02/20 15:46:09;;;;;;;9.35;2.80;;;;;;;;;;10400886;28;20052;-80
2023/02/20 15:51:18;;;;;;;8.75;3.40;;;;;;;;;;10416851;28;20515;-80
2023/02/20 15:56:22;;;;;;;7.03;2.80;;;;;;;;;;10404079;28;20385;-80
2023/02/20 16:01:25;;;;;;;8.57;2.95;;;;;;;;;;10407606;28;20047;-81
2023/02/20 16:06:30;;;;;;;5.70;2.58;;;;;;;;;;10411734;28;20427;-81
2023/02/20 16:11:38;;;;;;;6.55;2.55;;;;;;;;;;10400660;28;20045;-81
2023/02/20 16:16:44;;;;;;;6.68;2.88;;;;;;;;;;10421422;28;20041;-81
2023/02/20 16:21:51;;;;;;;6.22;2.55;;;;;;;;;;10414910;28;20076;-82
2023/02/20 16:27:01;;;;;;;5.72;2.92;;;;;;;;;;10418335;28;20094;-81
2023/02/20 16:32:16;;;;;;;5.65;2.53;;;;;;;;;;10414585;28;20061;-81
2023/02/20 16:37:22;;;;;;;3.80;2.08;;;;;;;;;;10407539;28;20072;-82
2023/02/20 16:42:32;;;;;;;5.85;2.75;;;;;;;;;;10412324;28;20044;-82
2023/02/20 16:47:35;;;;;;;6.82;3.00;;;;;;;;;;10396331;28;20041;-81
2023/02/20 16:52:41;;;;;;;5.75;2.25;;;;;;;;;;10411294;28;20041;-81
2023/02/20 16:57:45;;;;;;;6.03;2.67;;;;;;;;;;10423950;28;20055;-81
2023/02/20 17:02:48;;;;;;;5.72;3.03;;;;;;;;;;10417496;28;20051;-81
2023/02/20 17:07:53;;;;;;;6.22;3.35;;;;;;;;;;10411944;28;20055;-81
2023/02/20 17:12:58;;;;;;;8.18;3.00;;;;;;;;;;10421809;28;20056;-81
2023/02/20 17:18:01;;;;;;;5.65;3.05;;;;;;;;;;10424683;28;20045;-82
2023/02/20 17:23:06;;;;;;;6.50;3.90;;;;;;;;;;10433228;28;20072;-82
2023/02/20 17:28:10;;;;;;;7.65;2.95;;;;;;;;;;10423283;28;20408;-82
2023/02/20 17:33:14;;;;;;;5.88;2.85;;;;;;;;;;10416451;28;20041;-81
2023/02/20 17:38:19;;;;;;;6.70;3.35;;;;;;;;;;10421135;28;20052;-81
2023/02/20 17:43:23;;;;;;;4.50;2.42;;;;;;;;;;10416380;28;20037;-80
2023/02/20 17:48:26;;;;;;;6.88;3.42;;;;;;;;;;10416562;28;20482;-80
2023/02/20 17:53:31;;;;;;;7.13;3.30;;;;;;;;;;10406414;28;20135;-80
2023/02/20 17:58:34;;;;;;;4.75;2.95;;;;;;;;;;10423295;28;20053;-80
2023/02/20 18:03:38;;;;;;;6.28;2.80;;;;;;;;;;10429637;28;20073;-81
2023/02/20 18:08:42;;;;;;;7.43;3.10;;;;;;;;;;10429697;28;20048;-80
2023/02/20 18:13:46;;;;;;;5.50;2.97;;;;;;;;;;10427772;28;20163;-80
2023/02/20 18:18:49;;;;;;;8.32;4.72;;;;;;;;;;10419424;28;20646;-80
2023/02/20 18:23:55;;;;;;;15.27;7.22;;;;;;;;;;10410525;28;20047;-80
2023/02/20 18:28:58;;;;;;;12.73;5.35;;;;;;;;;;10422382;28;20037;-80
2023/02/20 18:34:02;;;;;;;8.98;4.20;;;;;;;;;;10427922;28;20055;-81
2023/02/20 18:39:09;;;;;;;6.10;3.30;;;;;;;;;;10422974;28;20041;-80
2023/02/20 18:44:13;;;;;;;5.78;3.05;;;;;;;;;;10573027;22;20138;-83
2023/02/20 18:49:16;;;;;;;9.77;4.60;;;;;;;;;;10559950;28;20066;-83
2023/02/20 18:54:28;;;;;;;6.70;3.50;;;;;;;;;;10557584;28;20035;-83
2023/02/20 18:59:32;;;;;;;4.93;2.45;;;;;;;;;;10560726;28;20103;-83
2023/02/20 19:04:35;;;;;;;5.47;3.17;;;;;;;;;;10570026;28;20110;-86
2023/02/20 19:09:42;;;;;;;6.78;3.13;;;;;;;;;;10566921;28;20062;-87
2023/02/20 19:14:45;;;;;;;3.58;2.47;;;;;;;;;;10567992;27;20444;-84
2023/02/20 19:19:49;;;;;;;6.70;2.50;;;;;;;;;;10554172;28;20051;-83
2023/02/20 19:24:55;;;;;;;5.85;2.97;;;;;;;;;;10560597;28;20039;-86
2023/02/20 19:29:58;;;;;;;7.80;4.50;;;;;;;;;;10566827;28;20485;-85
2023/02/20 19:35:02;;;;;;;8.45;3.65;;;;;;;;;;10571472;28;20078;-87
2023/02/20 19:40:08;;;;;;;5.85;3.03;;;;;;;;;;10564086;27;20044;-85
2023/02/20 19:45:11;;;;;;;4.75;2.67;;;;;;;;;;10570050;28;20031;-85
2023/02/20 19:50:16;;;;;;;5.55;3.10;;;;;;;;;;10566216;28;20051;-85
2023/02/20 19:55:21;;;;;;;7.15;3.35;;;;;;;;;;10565663;28;20048;-86
2023/02/20 20:00:27;;;;;;;4.13;2.78;;;;;;;;;;10567853;28;20113;-84
2023/02/20 20:05:30;;;;;;;4.23;2.63;;;;;;;;;;10563347;28;20039;-83
2023/02/20 20:10:35;;;;;;;4.80;3.05;;;;;;;;;;10562411;28;20107;-83
2023/02/20 20:15:39;;;;;;;4.00;2.22;;;;;;;;;;10560675;28;20092;-83
2023/02/20 20:20:42;;;;;;;3.55;2.20;;;;;;;;;;10562569;28;20399;-83
2023/02/20 20:25:47;;;;;;;3.83;2.42;;;;;;;;;;10550326;28;20048;-83
2023/02/20 20:30:50;;;;;;;5.10;2.53;;;;;;;;;;10541509;28;20058;-83
2023/02/20 20:35:54;;;;;;;5.20;2.85;;;;;;;;;;10543664;28;20040;-83
2023/02/20 20:40:58;;;;;;;5.65;2.88;;;;;;;;;;10538874;28;20078;-83
2023/02/20 20:46:02;;;;;;;6.85;3.72;;;;;;;;;;10539484;28;20044;-83
2023/02/20 20:51:07;;;;;;;5.85;3.65;;;;;;;;;;10542945;28;20455;-88
2023/02/20 20:56:12;;;;;;;7.20;4.07;;;;;;;;;;10543701;28;20044;-87
2023/02/20 21:01:18;;;;;;;9.30;5.00;;;;;;;;;;10550388;28;20055;-87
2023/02/20 21:06:24;;;;;;;7.97;4.43;;;;;;;;;;10551297;28;20517;-86
2023/02/20 21:11:29;;;;;;;8.65;4.65;;;;;;;;;;10547719;28;20546;-84
2023/02/20 21:16:33;;;;;;;10.45;5.07;;;;;;;;;;10545658;28;20059;-84
2023/02/20 21:21:36;;;;;;;7.30;4.68;;;;;;;;;;10553718;27;20421;-84
2023/02/20 21:26:41;;;;;;;12.05;5.10;;;;;;;;;;10553274;28;20079;-88
2023/02/20 21:31:46;;;;;;;9.70;5.55;;;;;;;;;;10558750;27;20062;-87
2023/02/20 21:36:50;;;;;;;10.73;5.20;;;;;;;;;;10559027;28;20089;-86
2023/02/20 21:47:17;;;;;;;8.35;4.53;;;;;;;;;;10548003;28;20508;-84
2023/02/20 21:52:21;;;;;;;9.70;4.95;;;;;;;;;;10554693;28;20133;-89
2023/02/20 21:57:26;;;;;;;7.90;4.95;;;;;;;;;;10548581;28;20039;-84
